sensor_id;sensor_type;location;lat;lon;timestamp;P1;durP1;ratioP1;P2;durP2;ratioP2
48578;SDS011;34357;51.948;6.132;2023-05-15T00:01:48;28.20;;;19.95;;
48578;SDS011;34357;51.948;6.132;2023-05-15T00:04:15;23.77;;;19.65;;
48578;SDS011;34357;51.948;6.132;2023-05-15T00:06:41;27.50;;;20.45;;
48578;SDS011;34357;51.948;6.132;2023-05-15T00:09:06;25.38;;;20.38;;
48578;SDS011;34357;51.948;6.132;2023-05-15T00:11:32;28.15;;;20.50;;
48578;SDS011;34357;51.948;6.132;2023-05-15T00:13:58;23.05;;;20.55;;
48578;SDS011;34357;51.948;6.132;2023-05-15T00:16:24;25.40;;;20.33;;
48578;SDS011;34357;51.948;6.132;2023-05-15T00:18:50;28.52;;;19.98;;
48578;SDS011;34357;51.948;6.132;2023-05-15T00:21:16;25.88;;;19.35;;
48578;SDS011;34357;51.948;6.132;2023-05-15T00:23:41;27.50;;;20.45;;
48578;SDS011;34357;51.948;6.132;2023-05-15T00:26:07;26.70;;;21.20;;
48578;SDS011;34357;51.948;6.132;2023-05-15T00:28:33;26.15;;;19.73;;
48578;SDS011;34357;51.948;6.132;2023-05-15T00:30:58;23.60;;;19.20;;
48578;SDS011;34357;51.948;6.132;2023-05-15T00:33:24;28.80;;;21.33;;
48578;SDS011;34357;51.948;6.132;2023-05-15T00:35:50;27.08;;;20.02;;
48578;SDS011;34357;51.948;6.132;2023-05-15T00:38:16;25.85;;;20.35;;
48578;SDS011;34357;51.948;6.132;2023-05-15T00:40:41;28.95;;;20.20;;
48578;SDS011;34357;51.948;6.132;2023-05-15T00:43:08;27.80;;;21.30;;
48578;SDS011;34357;51.948;6.132;2023-05-15T00:45:35;28.40;;;20.65;;
48578;SDS011;34357;51.948;6.132;2023-05-15T00:48:06;27.63;;;21.20;;
48578;SDS011;34357;51.948;6.132;2023-05-15T00:50:37;24.55;;;21.02;;
48578;SDS011;34357;51.948;6.132;2023-05-15T00:53:05;26.15;;;19.75;;
48578;SDS011;34357;51.948;6.132;2023-05-15T00:55:32;24.83;;;20.70;;
48578;SDS011;34357;51.948;6.132;2023-05-15T00:57:58;24.45;;;20.25;;
48578;SDS011;34357;51.948;6.132;2023-05-15T01:00:25;29.60;;;22.02;;
48578;SDS011;34357;51.948;6.132;2023-05-15T01:02:52;26.98;;;21.20;;
48578;SDS011;34357;51.948;6.132;2023-05-15T01:05:18;22.83;;;20.42;;
48578;SDS011;34357;51.948;6.132;2023-05-15T01:07:48;24.42;;;20.48;;
48578;SDS011;34357;51.948;6.132;2023-05-15T01:10:20;33.08;;;23.08;;
48578;SDS011;34357;51.948;6.132;2023-05-15T01:12:47;26.20;;;20.50;;
48578;SDS011;34357;51.948;6.132;2023-05-15T01:15:18;24.90;;;20.80;;
48578;SDS011;34357;51.948;6.132;2023-05-15T01:17:43;25.38;;;20.45;;
48578;SDS011;34357;51.948;6.132;2023-05-15T01:20:09;28.45;;;21.67;;
48578;SDS011;34357;51.948;6.132;2023-05-15T01:25:25;29.20;;;22.13;;
48578;SDS011;34357;51.948;6.132;2023-05-15T01:28:04;27.05;;;21.95;;
48578;SDS011;34357;51.948;6.132;2023-05-15T01:30:34;28.92;;;21.33;;
48578;SDS011;34357;51.948;6.132;2023-05-15T01:33:07;26.40;;;21.75;;
48578;SDS011;34357;51.948;6.132;2023-05-15T01:35:45;26.08;;;21.15;;
48578;SDS011;34357;51.948;6.132;2023-05-15T01:41:09;23.83;;;20.25;;
48578;SDS011;34357;51.948;6.132;2023-05-15T01:43:51;27.23;;;21.33;;
48578;SDS011;34357;51.948;6.132;2023-05-15T01:46:21;25.83;;;22.13;;
48578;SDS011;34357;51.948;6.132;2023-05-15T01:48:48;25.90;;;22.33;;
48578;SDS011;34357;51.948;6.132;2023-05-15T01:51:17;25.88;;;22.30;;
48578;SDS011;34357;51.948;6.132;2023-05-15T01:53:45;27.77;;;22.58;;
48578;SDS011;34357;51.948;6.132;2023-05-15T01:56:11;28.95;;;23.05;;
48578;SDS011;34357;51.948;6.132;2023-05-15T01:58:38;27.38;;;22.75;;
48578;SDS011;34357;51.948;6.132;2023-05-15T02:01:05;31.25;;;23.60;;
48578;SDS011;34357;51.948;6.132;2023-05-15T02:03:33;28.98;;;21.65;;
48578;SDS011;34357;51.948;6.132;2023-05-15T02:06:01;31.88;;;22.80;;
48578;SDS011;34357;51.948;6.132;2023-05-15T02:08:29;28.13;;;23.60;;
48578;SDS011;34357;51.948;6.132;2023-05-15T02:10:57;29.35;;;23.42;;
48578;SDS011;34357;51.948;6.132;2023-05-15T02:13:24;26.95;;;23.60;;
48578;SDS011;34357;51.948;6.132;2023-05-15T02:15:51;25.10;;;21.98;;
48578;SDS011;34357;51.948;6.132;2023-05-15T02:18:17;32.08;;;23.15;;
48578;SDS011;34357;51.948;6.132;2023-05-15T02:20:43;27.58;;;22.10;;
48578;SDS011;34357;51.948;6.132;2023-05-15T02:23:10;26.85;;;23.02;;
48578;SDS011;34357;51.948;6.132;2023-05-15T02:25:45;29.67;;;22.60;;
48578;SDS011;34357;51.948;6.132;2023-05-15T02:28:23;33.53;;;22.92;;
48578;SDS011;34357;51.948;6.132;2023-05-15T02:31:05;28.45;;;23.55;;
48578;SDS011;34357;51.948;6.132;2023-05-15T02:33:51;31.98;;;22.92;;
48578;SDS011;34357;51.948;6.132;2023-05-15T02:36:34;28.90;;;23.02;;
48578;SDS011;34357;51.948;6.132;2023-05-15T02:39:06;27.00;;;21.05;;
48578;SDS011;34357;51.948;6.132;2023-05-15T02:41:33;26.35;;;23.38;;
48578;SDS011;34357;51.948;6.132;2023-05-15T02:44:00;32.35;;;21.88;;
48578;SDS011;34357;51.948;6.132;2023-05-15T02:46:28;25.67;;;22.05;;
48578;SDS011;34357;51.948;6.132;2023-05-15T02:48:55;30.42;;;21.80;;
48578;SDS011;34357;51.948;6.132;2023-05-15T02:51:21;25.10;;;20.90;;
48578;SDS011;34357;51.948;6.132;2023-05-15T02:53:47;23.48;;;21.00;;
48578;SDS011;34357;51.948;6.132;2023-05-15T02:56:13;23.20;;;19.52;;
48578;SDS011;34357;51.948;6.132;2023-05-15T02:58:39;24.17;;;21.13;;
48578;SDS011;34357;51.948;6.132;2023-05-15T03:01:06;25.65;;;20.42;;
48578;SDS011;34357;51.948;6.132;2023-05-15T03:03:31;23.20;;;20.70;;
48578;SDS011;34357;51.948;6.132;2023-05-15T03:06:08;22.92;;;19.27;;
48578;SDS011;34357;51.948;6.132;2023-05-15T03:08:34;23.15;;;18.95;;
48578;SDS011;34357;51.948;6.132;2023-05-15T03:11:00;23.10;;;19.05;;
48578;SDS011;34357;51.948;6.132;2023-05-15T03:13:25;22.63;;;19.67;;
48578;SDS011;34357;51.948;6.132;2023-05-15T03:15:51;25.38;;;20.40;;
48578;SDS011;34357;51.948;6.132;2023-05-15T03:18:17;23.15;;;19.55;;
48578;SDS011;34357;51.948;6.132;2023-05-15T03:20:43;24.95;;;20.55;;
48578;SDS011;34357;51.948;6.132;2023-05-15T03:23:09;23.02;;;20.38;;
48578;SDS011;34357;51.948;6.132;2023-05-15T03:25:35;23.60;;;19.17;;
48578;SDS011;34357;51.948;6.132;2023-05-15T03:28:01;28.77;;;19.92;;
48578;SDS011;34357;51.948;6.132;2023-05-15T03:30:27;23.85;;;18.92;;
48578;SDS011;34357;51.948;6.132;2023-05-15T03:32:53;26.02;;;20.90;;
48578;SDS011;34357;51.948;6.132;2023-05-15T03:35:21;26.13;;;20.73;;
48578;SDS011;34357;51.948;6.132;2023-05-15T03:37:47;28.15;;;21.58;;
48578;SDS011;34357;51.948;6.132;2023-05-15T03:40:12;30.73;;;21.55;;
48578;SDS011;34357;51.948;6.132;2023-05-15T03:42:38;29.70;;;22.13;;
48578;SDS011;34357;51.948;6.132;2023-05-15T03:45:04;29.23;;;22.63;;
48578;SDS011;34357;51.948;6.132;2023-05-15T03:47:31;26.63;;;22.23;;
48578;SDS011;34357;51.948;6.132;2023-05-15T03:49:56;29.27;;;21.63;;
48578;SDS011;34357;51.948;6.132;2023-05-15T03:52:23;32.20;;;22.42;;
48578;SDS011;34357;51.948;6.132;2023-05-15T03:54:48;26.05;;;22.45;;
48578;SDS011;34357;51.948;6.132;2023-05-15T03:57:14;27.95;;;21.90;;
48578;SDS011;34357;51.948;6.132;2023-05-15T03:59:40;28.90;;;22.90;;
48578;SDS011;34357;51.948;6.132;2023-05-15T04:02:06;25.75;;;21.08;;
48578;SDS011;34357;51.948;6.132;2023-05-15T04:04:31;28.50;;;21.60;;
48578;SDS011;34357;51.948;6.132;2023-05-15T04:06:57;26.95;;;20.75;;
48578;SDS011;34357;51.948;6.132;2023-05-15T04:09:24;27.20;;;22.38;;
48578;SDS011;34357;51.948;6.132;2023-05-15T04:11:50;28.95;;;22.48;;
48578;SDS011;34357;51.948;6.132;2023-05-15T04:14:16;24.83;;;21.35;;
48578;SDS011;34357;51.948;6.132;2023-05-15T04:16:41;27.63;;;20.55;;
48578;SDS011;34357;51.948;6.132;2023-05-15T04:19:07;26.70;;;21.73;;
48578;SDS011;34357;51.948;6.132;2023-05-15T04:21:33;28.42;;;22.20;;
48578;SDS011;34357;51.948;6.132;2023-05-15T04:23:58;26.95;;;22.02;;
48578;SDS011;34357;51.948;6.132;2023-05-15T04:26:24;32.25;;;23.38;;
48578;SDS011;34357;51.948;6.132;2023-05-15T04:28:50;33.67;;;24.42;;
48578;SDS011;34357;51.948;6.132;2023-05-15T04:31:16;31.60;;;24.45;;
48578;SDS011;34357;51.948;6.132;2023-05-15T04:33:41;29.42;;;23.77;;
48578;SDS011;34357;51.948;6.132;2023-05-15T04:36:08;33.63;;;23.92;;
48578;SDS011;34357;51.948;6.132;2023-05-15T04:38:34;35.60;;;25.98;;
48578;SDS011;34357;51.948;6.132;2023-05-15T04:41:00;33.38;;;26.42;;
48578;SDS011;34357;51.948;6.132;2023-05-15T04:43:26;40.05;;;28.30;;
48578;SDS011;34357;51.948;6.132;2023-05-15T04:45:51;33.50;;;26.83;;
48578;SDS011;34357;51.948;6.132;2023-05-15T04:48:17;36.67;;;27.13;;
48578;SDS011;34357;51.948;6.132;2023-05-15T04:50:43;40.03;;;28.58;;
48578;SDS011;34357;51.948;6.132;2023-05-15T04:53:09;37.13;;;28.98;;
48578;SDS011;34357;51.948;6.132;2023-05-15T04:55:35;46.35;;;30.92;;
48578;SDS011;34357;51.948;6.132;2023-05-15T04:58:00;39.53;;;29.45;;
48578;SDS011;34357;51.948;6.132;2023-05-15T05:00:27;38.50;;;29.52;;
48578;SDS011;34357;51.948;6.132;2023-05-15T05:02:53;38.55;;;30.00;;
48578;SDS011;34357;51.948;6.132;2023-05-15T05:05:18;36.88;;;28.17;;
48578;SDS011;34357;51.948;6.132;2023-05-15T05:07:44;40.17;;;30.35;;
48578;SDS011;34357;51.948;6.132;2023-05-15T05:10:10;37.83;;;28.90;;
48578;SDS011;34357;51.948;6.132;2023-05-15T05:12:36;41.25;;;29.65;;
48578;SDS011;34357;51.948;6.132;2023-05-15T05:15:02;41.13;;;30.77;;
48578;SDS011;34357;51.948;6.132;2023-05-15T05:17:28;39.10;;;30.45;;
48578;SDS011;34357;51.948;6.132;2023-05-15T05:19:55;42.78;;;30.75;;
48578;SDS011;34357;51.948;6.132;2023-05-15T05:22:20;46.42;;;31.40;;
48578;SDS011;34357;51.948;6.132;2023-05-15T05:24:46;40.42;;;30.88;;
48578;SDS011;34357;51.948;6.132;2023-05-15T05:27:12;41.53;;;30.80;;
48578;SDS011;34357;51.948;6.132;2023-05-15T05:29:38;41.90;;;32.63;;
48578;SDS011;34357;51.948;6.132;2023-05-15T05:32:04;39.20;;;31.42;;
48578;SDS011;34357;51.948;6.132;2023-05-15T05:34:31;41.67;;;32.38;;
48578;SDS011;34357;51.948;6.132;2023-05-15T05:36:57;38.67;;;30.65;;
48578;SDS011;34357;51.948;6.132;2023-05-15T05:39:22;37.72;;;29.73;;
48578;SDS011;34357;51.948;6.132;2023-05-15T05:41:48;45.47;;;30.58;;
48578;SDS011;34357;51.948;6.132;2023-05-15T05:44:14;40.90;;;30.60;;
48578;SDS011;34357;51.948;6.132;2023-05-15T05:46:40;34.22;;;27.83;;
48578;SDS011;34357;51.948;6.132;2023-05-15T05:49:06;35.75;;;27.88;;
48578;SDS011;34357;51.948;6.132;2023-05-15T05:51:33;39.28;;;28.65;;
48578;SDS011;34357;51.948;6.132;2023-05-15T05:54:00;37.15;;;27.75;;
48578;SDS011;34357;51.948;6.132;2023-05-15T05:56:26;35.20;;;26.85;;
48578;SDS011;34357;51.948;6.132;2023-05-15T05:58:52;37.47;;;27.27;;
48578;SDS011;34357;51.948;6.132;2023-05-15T06:01:19;40.95;;;28.00;;
48578;SDS011;34357;51.948;6.132;2023-05-15T06:03:45;37.42;;;28.08;;
48578;SDS011;34357;51.948;6.132;2023-05-15T06:06:12;37.83;;;28.15;;
48578;SDS011;34357;51.948;6.132;2023-05-15T06:08:37;37.40;;;28.15;;
48578;SDS011;34357;51.948;6.132;2023-05-15T06:11:03;37.30;;;28.05;;
48578;SDS011;34357;51.948;6.132;2023-05-15T06:13:29;35.10;;;27.42;;
48578;SDS011;34357;51.948;6.132;2023-05-15T06:15:55;36.30;;;27.25;;
48578;SDS011;34357;51.948;6.132;2023-05-15T06:18:20;40.60;;;27.85;;
48578;SDS011;34357;51.948;6.132;2023-05-15T06:20:46;32.67;;;26.42;;
48578;SDS011;34357;51.948;6.132;2023-05-15T06:23:12;35.10;;;25.85;;
48578;SDS011;34357;51.948;6.132;2023-05-15T06:25:38;33.50;;;25.88;;
48578;SDS011;34357;51.948;6.132;2023-05-15T06:28:04;32.65;;;25.10;;
48578;SDS011;34357;51.948;6.132;2023-05-15T06:30:29;31.15;;;24.67;;
48578;SDS011;34357;51.948;6.132;2023-05-15T06:32:55;30.33;;;24.13;;
48578;SDS011;34357;51.948;6.132;2023-05-15T06:35:21;29.85;;;22.63;;
48578;SDS011;34357;51.948;6.132;2023-05-15T06:37:49;28.98;;;23.20;;
48578;SDS011;34357;51.948;6.132;2023-05-15T06:40:17;31.02;;;22.23;;
48578;SDS011;34357;51.948;6.132;2023-05-15T06:42:42;25.00;;;20.42;;
48578;SDS011;34357;51.948;6.132;2023-05-15T06:45:08;23.25;;;20.75;;
48578;SDS011;34357;51.948;6.132;2023-05-15T06:47:34;24.02;;;21.25;;
48578;SDS011;34357;51.948;6.132;2023-05-15T06:50:00;28.73;;;20.52;;
48578;SDS011;34357;51.948;6.132;2023-05-15T06:52:25;23.00;;;20.45;;
48578;SDS011;34357;51.948;6.132;2023-05-15T06:54:51;24.88;;;20.77;;
48578;SDS011;34357;51.948;6.132;2023-05-15T06:57:17;23.65;;;18.92;;
48578;SDS011;34357;51.948;6.132;2023-05-15T06:59:43;20.75;;;17.30;;
48578;SDS011;34357;51.948;6.132;2023-05-15T07:02:09;19.52;;;17.42;;
48578;SDS011;34357;51.948;6.132;2023-05-15T07:04:35;22.45;;;19.23;;
48578;SDS011;34357;51.948;6.132;2023-05-15T07:07:01;22.27;;;17.27;;
48578;SDS011;34357;51.948;6.132;2023-05-15T07:09:27;24.73;;;17.38;;
48578;SDS011;34357;51.948;6.132;2023-05-15T07:11:53;23.27;;;18.35;;
48578;SDS011;34357;51.948;6.132;2023-05-15T07:14:18;23.33;;;17.17;;
48578;SDS011;34357;51.948;6.132;2023-05-15T07:16:44;20.13;;;17.40;;
48578;SDS011;34357;51.948;6.132;2023-05-15T07:19:11;27.33;;;18.38;;
48578;SDS011;34357;51.948;6.132;2023-05-15T07:21:37;19.58;;;17.48;;
48578;SDS011;34357;51.948;6.132;2023-05-15T07:24:03;21.67;;;16.63;;
48578;SDS011;34357;51.948;6.132;2023-05-15T07:26:30;20.92;;;17.60;;
48578;SDS011;34357;51.948;6.132;2023-05-15T07:28:56;23.23;;;17.00;;
48578;SDS011;34357;51.948;6.132;2023-05-15T07:31:22;19.38;;;15.45;;
48578;SDS011;34357;51.948;6.132;2023-05-15T07:33:49;18.35;;;15.95;;
48578;SDS011;34357;51.948;6.132;2023-05-15T07:36:15;19.92;;;17.45;;
48578;SDS011;34357;51.948;6.132;2023-05-15T07:38:40;19.65;;;15.90;;
48578;SDS011;34357;51.948;6.132;2023-05-15T07:41:06;22.00;;;16.27;;
48578;SDS011;34357;51.948;6.132;2023-05-15T07:43:33;19.17;;;14.85;;
48578;SDS011;34357;51.948;6.132;2023-05-15T07:45:58;17.17;;;15.30;;
48578;SDS011;34357;51.948;6.132;2023-05-15T07:48:24;21.02;;;14.32;;
48578;SDS011;34357;51.948;6.132;2023-05-15T07:50:50;20.88;;;14.68;;
48578;SDS011;34357;51.948;6.132;2023-05-15T07:53:16;17.50;;;13.52;;
48578;SDS011;34357;51.948;6.132;2023-05-15T07:55:43;14.32;;;12.18;;
48578;SDS011;34357;51.948;6.132;2023-05-15T07:58:09;19.27;;;12.30;;
48578;SDS011;34357;51.948;6.132;2023-05-15T08:00:36;14.73;;;12.63;;
48578;SDS011;34357;51.948;6.132;2023-05-15T08:03:02;16.23;;;12.25;;
48578;SDS011;34357;51.948;6.132;2023-05-15T08:05:28;14.55;;;11.90;;
48578;SDS011;34357;51.948;6.132;2023-05-15T08:07:54;15.35;;;12.55;;
48578;SDS011;34357;51.948;6.132;2023-05-15T08:10:20;18.77;;;12.13;;
48578;SDS011;34357;51.948;6.132;2023-05-15T08:12:47;14.93;;;11.13;;
48578;SDS011;34357;51.948;6.132;2023-05-15T08:15:12;17.77;;;13.73;;
48578;SDS011;34357;51.948;6.132;2023-05-15T08:17:39;16.35;;;14.38;;
48578;SDS011;34357;51.948;6.132;2023-05-15T08:20:05;17.50;;;12.50;;
48578;SDS011;34357;51.948;6.132;2023-05-15T08:22:31;16.33;;;14.57;;
48578;SDS011;34357;51.948;6.132;2023-05-15T08:24:58;18.90;;;14.63;;
48578;SDS011;34357;51.948;6.132;2023-05-15T08:27:24;17.45;;;14.75;;
48578;SDS011;34357;51.948;6.132;2023-05-15T08:29:51;17.63;;;14.27;;
48578;SDS011;34357;51.948;6.132;2023-05-15T08:32:18;18.75;;;15.05;;
48578;SDS011;34357;51.948;6.132;2023-05-15T08:34:43;18.25;;;14.88;;
48578;SDS011;34357;51.948;6.132;2023-05-15T08:37:10;19.40;;;14.52;;
48578;SDS011;34357;51.948;6.132;2023-05-15T08:39:35;17.30;;;14.82;;
48578;SDS011;34357;51.948;6.132;2023-05-15T08:44:30;15.95;;;14.23;;
48578;SDS011;34357;51.948;6.132;2023-05-15T08:46:56;17.52;;;13.50;;
48578;SDS011;34357;51.948;6.132;2023-05-15T08:49:32;18.70;;;13.35;;
48578;SDS011;34357;51.948;6.132;2023-05-15T08:52:12;18.40;;;14.60;;
48578;SDS011;34357;51.948;6.132;2023-05-15T08:54:39;16.02;;;12.60;;
48578;SDS011;34357;51.948;6.132;2023-05-15T08:57:05;14.50;;;12.50;;
48578;SDS011;34357;51.948;6.132;2023-05-15T08:59:32;12.20;;;9.48;;
48578;SDS011;34357;51.948;6.132;2023-05-15T09:01:58;9.32;;;8.25;;
48578;SDS011;34357;51.948;6.132;2023-05-15T09:04:24;10.88;;;9.23;;
48578;SDS011;34357;51.948;6.132;2023-05-15T09:06:50;11.68;;;9.48;;
48578;SDS011;34357;51.948;6.132;2023-05-15T09:09:16;11.43;;;9.48;;
48578;SDS011;34357;51.948;6.132;2023-05-15T09:11:43;12.98;;;10.30;;
48578;SDS011;34357;51.948;6.132;2023-05-15T09:14:10;14.73;;;11.85;;
48578;SDS011;34357;51.948;6.132;2023-05-15T09:16:36;20.95;;;13.35;;
48578;SDS011;34357;51.948;6.132;2023-05-15T09:19:03;21.17;;;13.45;;
48578;SDS011;34357;51.948;6.132;2023-05-15T09:21:30;17.00;;;13.38;;
48578;SDS011;34357;51.948;6.132;2023-05-15T09:26:49;15.75;;;12.45;;
48578;SDS011;34357;51.948;6.132;2023-05-15T09:29:29;15.40;;;13.45;;
48578;SDS011;34357;51.948;6.132;2023-05-15T09:32:00;19.02;;;12.93;;
48578;SDS011;34357;51.948;6.132;2023-05-15T09:34:34;14.93;;;12.98;;
48578;SDS011;34357;51.948;6.132;2023-05-15T09:37:06;15.82;;;12.52;;
48578;SDS011;34357;51.948;6.132;2023-05-15T09:39:39;15.98;;;13.32;;
48578;SDS011;34357;51.948;6.132;2023-05-15T09:42:07;14.80;;;12.55;;
48578;SDS011;34357;51.948;6.132;2023-05-15T09:44:34;15.55;;;13.73;;
48578;SDS011;34357;51.948;6.132;2023-05-15T09:47:00;16.25;;;13.95;;
48578;SDS011;34357;51.948;6.132;2023-05-15T09:49:27;16.33;;;12.23;;
48578;SDS011;34357;51.948;6.132;2023-05-15T09:51:54;16.20;;;12.95;;
48578;SDS011;34357;51.948;6.132;2023-05-15T09:54:24;17.20;;;14.10;;
48578;SDS011;34357;51.948;6.132;2023-05-15T09:56:51;15.73;;;12.95;;
48578;SDS011;34357;51.948;6.132;2023-05-15T09:59:18;17.45;;;13.40;;
48578;SDS011;34357;51.948;6.132;2023-05-15T10:01:48;17.48;;;13.77;;
48578;SDS011;34357;51.948;6.132;2023-05-15T10:04:15;17.42;;;13.95;;
48578;SDS011;34357;51.948;6.132;2023-05-15T10:06:42;20.42;;;16.23;;
48578;SDS011;34357;51.948;6.132;2023-05-15T10:09:10;21.33;;;16.73;;
48578;SDS011;34357;51.948;6.132;2023-05-15T10:11:37;18.02;;;16.13;;
48578;SDS011;34357;51.948;6.132;2023-05-15T10:14:05;22.10;;;17.55;;
48578;SDS011;34357;51.948;6.132;2023-05-15T10:16:33;20.25;;;15.63;;
48578;SDS011;34357;51.948;6.132;2023-05-15T10:19:04;20.83;;;17.73;;
48578;SDS011;34357;51.948;6.132;2023-05-15T10:21:40;16.92;;;14.10;;
48578;SDS011;34357;51.948;6.132;2023-05-15T10:24:06;17.65;;;15.05;;
48578;SDS011;34357;51.948;6.132;2023-05-15T10:26:42;20.38;;;15.57;;
48578;SDS011;34357;51.948;6.132;2023-05-15T10:29:08;23.58;;;17.85;;
48578;SDS011;34357;51.948;6.132;2023-05-15T10:31:35;19.67;;;16.80;;
48578;SDS011;34357;51.948;6.132;2023-05-15T10:34:02;24.70;;;19.60;;
48578;SDS011;34357;51.948;6.132;2023-05-15T10:36:28;22.55;;;19.25;;
48578;SDS011;34357;51.948;6.132;2023-05-15T10:38:55;20.73;;;18.50;;
48578;SDS011;34357;51.948;6.132;2023-05-15T10:41:24;24.13;;;20.25;;
48578;SDS011;34357;51.948;6.132;2023-05-15T10:43:53;23.25;;;20.88;;
48578;SDS011;34357;51.948;6.132;2023-05-15T10:46:22;25.05;;;20.48;;
48578;SDS011;34357;51.948;6.132;2023-05-15T10:48:48;20.88;;;18.77;;
48578;SDS011;34357;51.948;6.132;2023-05-15T10:51:25;24.17;;;17.85;;
48578;SDS011;34357;51.948;6.132;2023-05-15T10:53:53;27.33;;;17.98;;
48578;SDS011;34357;51.948;6.132;2023-05-15T10:56:24;24.95;;;15.30;;
48578;SDS011;34357;51.948;6.132;2023-05-15T10:58:59;18.10;;;13.73;;
48578;SDS011;34357;51.948;6.132;2023-05-15T11:01:32;15.20;;;13.15;;
48578;SDS011;34357;51.948;6.132;2023-05-15T11:04:12;18.42;;;12.65;;
48578;SDS011;34357;51.948;6.132;2023-05-15T11:06:43;16.42;;;12.00;;
48578;SDS011;34357;51.948;6.132;2023-05-15T11:09:43;13.43;;;11.38;;
48578;SDS011;34357;51.948;6.132;2023-05-15T11:12:03;14.27;;;11.13;;
48578;SDS011;34357;51.948;6.132;2023-05-15T11:14:30;15.73;;;10.82;;
48578;SDS011;34357;51.948;6.132;2023-05-15T11:17:07;13.13;;;10.27;;
48578;SDS011;34357;51.948;6.132;2023-05-15T11:19:35;12.77;;;10.07;;
48578;SDS011;34357;51.948;6.132;2023-05-15T11:22:20;11.48;;;10.15;;
48578;SDS011;34357;51.948;6.132;2023-05-15T11:27:42;13.98;;;12.30;;
48578;SDS011;34357;51.948;6.132;2023-05-15T11:30:11;13.90;;;12.10;;
48578;SDS011;34357;51.948;6.132;2023-05-15T11:37:41;14.27;;;10.98;;
48578;SDS011;34357;51.948;6.132;2023-05-15T11:40:12;12.25;;;9.68;;
48578;SDS011;34357;51.948;6.132;2023-05-15T11:42:39;11.45;;;9.85;;
48578;SDS011;34357;51.948;6.132;2023-05-15T11:45:08;10.90;;;9.13;;
48578;SDS011;34357;51.948;6.132;2023-05-15T11:47:35;12.88;;;9.20;;
48578;SDS011;34357;51.948;6.132;2023-05-15T11:50:02;12.98;;;10.30;;
48578;SDS011;34357;51.948;6.132;2023-05-15T11:52:30;12.15;;;8.35;;
48578;SDS011;34357;51.948;6.132;2023-05-15T11:54:56;10.95;;;7.95;;
48578;SDS011;34357;51.948;6.132;2023-05-15T11:57:24;9.70;;;7.38;;
48578;SDS011;34357;51.948;6.132;2023-05-15T11:59:52;9.52;;;7.57;;
48578;SDS011;34357;51.948;6.132;2023-05-15T12:02:19;10.10;;;6.53;;
48578;SDS011;34357;51.948;6.132;2023-05-15T12:04:47;9.88;;;8.40;;
48578;SDS011;34357;51.948;6.132;2023-05-15T12:07:14;11.07;;;9.30;;
48578;SDS011;34357;51.948;6.132;2023-05-15T12:09:40;8.32;;;7.28;;
48578;SDS011;34357;51.948;6.132;2023-05-15T12:12:08;8.77;;;7.00;;
48578;SDS011;34357;51.948;6.132;2023-05-15T12:14:38;8.23;;;6.35;;
48578;SDS011;34357;51.948;6.132;2023-05-15T12:17:05;10.35;;;8.55;;
48578;SDS011;34357;51.948;6.132;2023-05-15T12:19:32;12.93;;;10.10;;
48578;SDS011;34357;51.948;6.132;2023-05-15T12:21:59;16.80;;;13.30;;
48578;SDS011;34357;51.948;6.132;2023-05-15T12:24:25;17.13;;;13.90;;
48578;SDS011;34357;51.948;6.132;2023-05-15T12:26:51;15.77;;;13.95;;
48578;SDS011;34357;51.948;6.132;2023-05-15T12:29:17;16.92;;;14.93;;
48578;SDS011;34357;51.948;6.132;2023-05-15T12:31:43;16.73;;;14.68;;
48578;SDS011;34357;51.948;6.132;2023-05-15T12:34:09;17.92;;;16.02;;
48578;SDS011;34357;51.948;6.132;2023-05-15T12:36:35;22.08;;;16.20;;
48578;SDS011;34357;51.948;6.132;2023-05-15T12:39:04;21.25;;;17.50;;
48578;SDS011;34357;51.948;6.132;2023-05-15T12:41:32;24.27;;;19.23;;
48578;SDS011;34357;51.948;6.132;2023-05-15T12:43:58;23.13;;;18.88;;
48578;SDS011;34357;51.948;6.132;2023-05-15T12:46:24;21.10;;;16.98;;
48578;SDS011;34357;51.948;6.132;2023-05-15T12:48:53;19.73;;;17.60;;
48578;SDS011;34357;51.948;6.132;2023-05-15T12:51:21;23.73;;;18.95;;
48578;SDS011;34357;51.948;6.132;2023-05-15T12:53:47;27.50;;;22.50;;
48578;SDS011;34357;51.948;6.132;2023-05-15T12:56:16;26.67;;;21.27;;
48578;SDS011;34357;51.948;6.132;2023-05-15T12:58:41;23.67;;;20.80;;
48578;SDS011;34357;51.948;6.132;2023-05-15T13:01:07;24.02;;;20.63;;
48578;SDS011;34357;51.948;6.132;2023-05-15T13:03:33;26.98;;;23.25;;
48578;SDS011;34357;51.948;6.132;2023-05-15T13:06:00;27.58;;;21.13;;
48578;SDS011;34357;51.948;6.132;2023-05-15T13:08:27;22.73;;;19.63;;
48578;SDS011;34357;51.948;6.132;2023-05-15T13:10:56;25.27;;;19.73;;
48578;SDS011;34357;51.948;6.132;2023-05-15T13:13:24;23.23;;;19.40;;
48578;SDS011;34357;51.948;6.132;2023-05-15T13:16:16;25.00;;;18.92;;
48578;SDS011;34357;51.948;6.132;2023-05-15T13:18:43;28.17;;;21.73;;
48578;SDS011;34357;51.948;6.132;2023-05-15T13:21:08;26.48;;;20.65;;
48578;SDS011;34357;51.948;6.132;2023-05-15T13:23:34;27.77;;;22.38;;
48578;SDS011;34357;51.948;6.132;2023-05-15T13:26:00;28.42;;;22.13;;
48578;SDS011;34357;51.948;6.132;2023-05-15T13:28:25;28.42;;;23.27;;
48578;SDS011;34357;51.948;6.132;2023-05-15T13:30:51;28.45;;;23.10;;
48578;SDS011;34357;51.948;6.132;2023-05-15T13:33:17;30.52;;;23.88;;
48578;SDS011;34357;51.948;6.132;2023-05-15T13:35:42;29.60;;;22.83;;
48578;SDS011;34357;51.948;6.132;2023-05-15T13:38:08;28.80;;;22.35;;
48578;SDS011;34357;51.948;6.132;2023-05-15T13:40:35;26.00;;;21.77;;
48578;SDS011;34357;51.948;6.132;2023-05-15T13:43:01;29.35;;;23.05;;
48578;SDS011;34357;51.948;6.132;2023-05-15T13:45:27;28.48;;;21.90;;
48578;SDS011;34357;51.948;6.132;2023-05-15T13:47:53;26.77;;;21.98;;
48578;SDS011;34357;51.948;6.132;2023-05-15T13:50:19;25.77;;;21.25;;
48578;SDS011;34357;51.948;6.132;2023-05-15T13:52:45;27.35;;;22.77;;
48578;SDS011;34357;51.948;6.132;2023-05-15T13:55:11;28.05;;;22.95;;
48578;SDS011;34357;51.948;6.132;2023-05-15T13:57:37;26.83;;;21.45;;
48578;SDS011;34357;51.948;6.132;2023-05-15T14:00:05;28.35;;;22.00;;
48578;SDS011;34357;51.948;6.132;2023-05-15T14:02:34;27.77;;;23.65;;
48578;SDS011;34357;51.948;6.132;2023-05-15T14:05:00;31.50;;;23.90;;
48578;SDS011;34357;51.948;6.132;2023-05-15T14:07:26;30.90;;;25.13;;
48578;SDS011;34357;51.948;6.132;2023-05-15T14:09:51;32.67;;;25.88;;
48578;SDS011;34357;51.948;6.132;2023-05-15T14:12:17;34.90;;;27.50;;
48578;SDS011;34357;51.948;6.132;2023-05-15T14:14:46;33.30;;;27.23;;
48578;SDS011;34357;51.948;6.132;2023-05-15T14:17:12;35.53;;;26.45;;
48578;SDS011;34357;51.948;6.132;2023-05-15T14:19:39;34.17;;;27.00;;
48578;SDS011;34357;51.948;6.132;2023-05-15T14:22:05;35.38;;;27.70;;
48578;SDS011;34357;51.948;6.132;2023-05-15T14:24:31;38.75;;;29.17;;
48578;SDS011;34357;51.948;6.132;2023-05-15T14:26:56;29.20;;;22.55;;
48578;SDS011;34357;51.948;6.132;2023-05-15T14:29:23;29.02;;;23.45;;
48578;SDS011;34357;51.948;6.132;2023-05-15T14:31:48;29.92;;;24.92;;
48578;SDS011;34357;51.948;6.132;2023-05-15T14:34:15;25.95;;;22.65;;
48578;SDS011;34357;51.948;6.132;2023-05-15T14:36:41;27.58;;;23.63;;
48578;SDS011;34357;51.948;6.132;2023-05-15T14:39:06;27.17;;;22.63;;
48578;SDS011;34357;51.948;6.132;2023-05-15T14:41:32;28.60;;;22.83;;
48578;SDS011;34357;51.948;6.132;2023-05-15T14:43:58;28.17;;;22.25;;